Time;durP1;ratioP1;P1;durP2;ratioP2;P2;SDS_P1;SDS_P2;PMS_P1;PMS_P2;Temp;Humidity;BMP_temperature;BMP_pressure;BME280_temperature;BME280_humidity;BME280_pressure;Samples;Min_cycle;Max_cycle;Signal;HPM_P1;HPM_P2
2021/01/19 00:03:34;;;;;;;44.05;19.00;;;;;;;-4.08;83.51;98781.52;250396;1148;23017;-72
2021/01/19 00:08:36;;;;;;;46.77;18.97;;;;;;;-4.12;83.62;98781.09;250230;1148;22914;-72
2021/01/19 00:13:38;;;;;;;49.07;21.90;;;;;;;-4.14;83.66;98775.25;250274;1148;22924;-72
2021/01/19 00:18:40;;;;;;;40.60;18.17;;;;;;;-4.15;84.10;98772.83;250255;1148;27247;-71
2021/01/19 00:23:42;;;;;;;38.17;17.83;;;;;;;-4.11;83.84;98771.45;250230;1148;22925;-74
2021/01/19 00:28:44;;;;;;;45.25;20.00;;;;;;;-4.08;83.72;98757.17;250254;1148;23038;-73
2021/01/19 00:33:46;;;;;;;42.25;19.20;;;;;;;-4.05;83.66;98754.96;250333;1148;22951;-71
2021/01/19 00:38:48;;;;;;;43.40;20.50;;;;;;;-4.01;83.74;98761.42;250400;1148;22945;-73
2021/01/19 00:43:50;;;;;;;38.93;16.47;;;;;;;-3.98;84.37;98763.65;250538;1147;23044;-72
2021/01/19 00:48:52;;;;;;;39.00;18.13;;;;;;;-3.97;84.37;98754.80;250494;1148;22967;-72
2021/01/19 00:53:54;;;;;;;43.27;20.53;;;;;;;-3.96;84.73;98748.58;250395;1147;23079;-72
2021/01/19 00:58:56;;;;;;;38.75;18.55;;;;;;;-3.90;84.82;98740.92;250283;1148;23074;-73
2021/01/19 01:03:59;;;;;;;42.00;18.17;;;;;;;-3.85;84.95;98739.34;250410;1147;22939;-74
2021/01/19 01:09:01;;;;;;;40.93;20.83;;;;;;;-3.78;84.63;98747.22;250476;1147;23089;-73
2021/01/19 01:14:04;;;;;;;35.93;17.63;;;;;;;-3.73;84.70;98742.22;250639;1148;22904;-72
2021/01/19 01:19:08;;;;;;;41.17;18.87;;;;;;;-3.70;84.74;98731.34;250635;1148;23966;-73
2021/01/19 01:24:10;;;;;;;33.07;16.27;;;;;;;-3.67;84.85;98733.56;250619;1148;22992;-72
2021/01/19 01:29:12;;;;;;;35.83;17.50;;;;;;;-3.61;84.90;98724.94;250554;1147;23166;-72
2021/01/19 01:34:14;;;;;;;34.20;17.57;;;;;;;-3.56;85.25;98724.34;250456;1148;22936;-73
2021/01/19 01:39:17;;;;;;;34.00;17.90;;;;;;;-3.54;84.60;98721.52;250858;1148;23031;-73
2021/01/19 01:44:19;;;;;;;34.07;16.60;;;;;;;-3.50;85.30;98717.50;250431;1147;22957;-73
2021/01/19 01:49:21;;;;;;;31.80;16.07;;;;;;;-3.45;85.34;98713.28;250305;1148;23000;-72
2021/01/19 01:54:25;;;;;;;30.93;16.03;;;;;;;-3.42;85.23;98708.66;250652;1148;22949;-73
2021/01/19 01:59:27;;;;;;;36.93;17.27;;;;;;;-3.41;85.43;98708.47;250334;1147;22992;-72
2021/01/19 02:04:29;;;;;;;31.10;15.35;;;;;;;-3.38;85.32;98707.27;250392;1148;24559;-73
2021/01/19 02:09:40;;;;;;;35.00;17.65;;;;;;;-3.33;85.87;98703.04;250681;1148;23101;-74
2021/01/19 02:14:54;;;;;;;28.57;14.77;;;;;;;-3.28;85.80;98703.22;250745;1148;23580;-73
2021/01/19 02:20:06;;;;;;;32.30;16.13;;;;;;;-3.27;86.44;98690.95;250473;1148;22939;-73
2021/01/19 02:25:29;;;;;;;29.03;15.17;;;;;;;-3.22;86.12;98696.38;250316;1148;22922;-72
2021/01/19 02:30:40;;;;;;;33.77;15.87;;;;;;;-3.20;86.12;98688.34;250357;1149;22945;-73
2021/01/19 02:35:56;;;;;;;32.53;16.67;;;;;;;-3.19;87.11;98682.08;250297;1149;23424;-74
2021/01/19 02:40:59;;;;;;;31.90;15.87;;;;;;;-3.17;87.22;98669.59;250844;1148;22985;-73
2021/01/19 02:46:03;;;;;;;32.53;15.87;;;;;;;-3.13;87.63;98670.80;250355;1148;23851;-73
2021/01/19 02:51:05;;;;;;;30.17;16.60;;;;;;;-3.08;87.43;98673.60;250410;1148;22896;-72
2021/01/19 02:56:15;;;;;;;33.03;15.00;;;;;;;-3.04;88.04;98674.81;250322;1146;23005;-72
2021/01/19 03:01:25;;;;;;;33.73;15.78;;;;;;;-2.98;88.11;98663.54;250782;1148;22943;-75
2021/01/19 03:06:31;;;;;;;24.93;11.63;;;;;;;-2.90;88.25;98653.84;250404;1148;23440;-74
2021/01/19 03:11:35;;;;;;;34.13;15.43;;;;;;;-2.85;88.32;98654.05;250541;1148;23162;-74
2021/01/19 03:16:37;;;;;;;32.70;15.63;;;;;;;-2.81;87.91;98652.61;250762;1148;22974;-74
2021/01/19 03:21:39;;;;;;;26.97;13.53;;;;;;;-2.76;88.47;98656.26;250753;1148;22909;-74
2021/01/19 03:26:42;;;;;;;31.23;14.87;;;;;;;-2.69;88.16;98661.47;250377;1148;22974;-73
2021/01/19 03:31:44;;;;;;;26.93;14.27;;;;;;;-2.66;88.57;98655.01;250610;1150;26904;-74
2021/01/19 03:36:47;;;;;;;28.80;13.40;;;;;;;-2.64;88.75;98651.17;250212;1148;22974;-75
2021/01/19 03:41:49;;;;;;;28.73;14.03;;;;;;;-2.63;88.57;98652.80;250419;1148;23690;-74
2021/01/19 03:46:51;;;;;;;27.07;14.53;;;;;;;-2.62;88.30;98645.72;250263;1148;22978;-74
2021/01/19 03:51:54;;;;;;;27.33;14.33;;;;;;;-2.60;88.76;98647.13;249984;1148;22941;-74
2021/01/19 03:56:56;;;;;;;27.20;14.40;;;;;;;-2.63;88.65;98646.73;250327;1147;23394;-74
2021/01/19 04:01:57;;;;;;;26.97;14.30;;;;;;;-2.63;88.74;98652.80;250265;1148;22915;-74
2021/01/19 04:07:00;;;;;;;26.80;13.67;;;;;;;-2.63;88.72;98652.80;250351;1148;22863;-73
2021/01/19 04:12:02;;;;;;;29.57;15.23;;;;;;;-2.60;88.65;98651.59;250301;1148;25838;-74
2021/01/19 04:17:04;;;;;;;28.13;15.23;;;;;;;-2.58;88.64;98650.34;250313;1148;22963;-74
2021/01/19 04:22:06;;;;;;;26.20;13.80;;;;;;;-2.57;89.36;98648.55;250247;1148;22938;-74
2021/01/19 04:27:09;;;;;;;24.50;13.20;;;;;;;-2.53;89.03;98660.23;250318;1148;22893;-74
2021/01/19 04:32:12;;;;;;;29.73;14.47;;;;;;;-2.51;89.46;98654.78;250108;1148;22936;-73
2021/01/19 04:37:14;;;;;;;26.23;13.53;;;;;;;-2.47;89.09;98653.36;251007;1149;23785;-72
2021/01/19 04:42:18;;;;;;;28.35;14.70;;;;;;;-2.44;88.93;98655.56;250200;1148;22969;-72
2021/01/19 04:47:21;;;;;;;26.77;15.00;;;;;;;-2.39;88.60;98657.56;250270;1148;22952;-75
2021/01/19 04:52:29;;;;;;;27.70;14.60;;;;;;;-2.35;88.26;98659.59;250364;1148;23023;-73
2021/01/19 04:57:34;;;;;;;27.80;14.40;;;;;;;-2.33;88.61;98652.30;250674;1148;23050;-72
2021/01/19 05:02:36;;;;;;;24.73;13.10;;;;;;;-2.31;88.49;98654.71;250634;1145;27018;-74
2021/01/19 05:08:02;;;;;;;29.33;14.43;;;;;;;-2.26;88.87;98653.08;250556;1148;23348;-74
2021/01/19 05:13:13;;;;;;;26.47;12.57;;;;;;;-2.20;89.64;98643.56;250369;1148;22964;-74
2021/01/19 05:18:16;;;;;;;28.83;13.63;;;;;;;-2.14;89.55;98644.55;250864;1148;25991;-74
2021/01/19 05:23:22;;;;;;;26.30;13.75;;;;;;;-2.08;88.84;98644.52;250811;1149;23986;-73
2021/01/19 05:28:40;;;;;;;26.20;14.20;;;;;;;-2.01;88.52;98651.58;250380;1147;23097;-72
2021/01/19 05:33:43;;;;;;;28.60;14.30;;;;;;;-2.00;88.42;98645.30;250662;1148;26060;-72
2021/01/19 05:38:49;;;;;;;27.73;13.83;;;;;;;-1.96;88.92;98641.23;250552;1148;23061;-72
2021/01/19 05:43:54;;;;;;;33.23;15.07;;;;;;;-1.95;88.01;98638.40;250483;1148;24427;-74
2021/01/19 05:49:01;;;;;;;30.70;14.97;;;;;;;-1.91;87.63;98642.22;250400;1148;23523;-72
2021/01/19 05:54:04;;;;;;;34.20;16.53;;;;;;;-1.88;87.59;98648.08;250036;1148;22994;-72
2021/01/19 05:59:07;;;;;;;28.83;15.77;;;;;;;-1.85;87.97;98650.28;250647;1148;22992;-72
2021/01/19 06:04:09;;;;;;;32.17;15.37;;;;;;;-1.83;87.60;98640.36;249891;1148;23180;-73
2021/01/19 06:09:12;;;;;;;30.67;14.17;;;;;;;-1.80;87.30;98640.75;249914;1148;23581;-73
2021/01/19 06:14:20;;;;;;;34.50;15.30;;;;;;;-1.76;87.80;98646.40;249866;1147;22963;-72
2021/01/19 06:19:27;;;;;;;37.70;17.77;;;;;;;-1.72;87.50;98644.96;250323;1148;23402;-75
2021/01/19 06:24:34;;;;;;;35.13;16.33;;;;;;;-1.68;87.01;98651.37;249949;1148;22959;-73
2021/01/19 06:29:37;;;;;;;36.87;18.03;;;;;;;-1.63;87.55;98656.81;249803;1148;22947;-74
2021/01/19 06:34:39;;;;;;;34.93;17.67;;;;;;;-1.57;87.59;98649.91;249803;1148;22899;-74
2021/01/19 06:39:42;;;;;;;34.23;16.17;;;;;;;-1.55;87.34;98647.88;249574;1148;22965;-74
2021/01/19 06:44:48;;;;;;;33.37;16.53;;;;;;;-1.49;87.40;98648.86;250180;1148;23045;-75
2021/01/19 06:49:51;;;;;;;36.57;16.87;;;;;;;-1.44;86.57;98654.25;250319;1146;22967;-76
2021/01/19 06:54:53;;;;;;;35.47;17.80;;;;;;;-1.37;86.90;98657.67;250415;1148;22970;-74
2021/01/19 07:00:23;;;;;;;42.57;19.37;;;;;;;-1.33;86.56;98653.59;250581;1146;22950;-74
2021/01/19 07:05:29;;;;;;;42.07;19.80;;;;;;;-1.22;87.07;98662.59;252037;1148;22950;-74
2021/01/19 07:10:51;;;;;;;38.07;18.93;;;;;;;-1.14;87.13;98658.91;250578;1148;22961;-73
2021/01/19 07:15:56;;;;;;;44.23;18.33;;;;;;;-1.06;87.09;98667.32;250273;1148;22964;-74
2021/01/19 07:21:06;;;;;;;41.70;19.20;;;;;;;-1.00;86.93;98662.23;250134;1148;22901;-74
2021/01/19 07:26:08;;;;;;;46.80;20.70;;;;;;;-0.97;87.32;98665.22;250062;1148;23008;-74
2021/01/19 07:31:12;;;;;;;36.03;18.40;;;;;;;-0.89;87.01;98651.01;250624;1148;22982;-75
2021/01/19 07:36:18;;;;;;;42.73;19.03;;;;;;;-0.82;87.12;98657.00;253424;1148;22967;-74
2021/01/19 07:41:32;;;;;;;32.37;17.33;;;;;;;-0.75;86.92;98662.21;250122;1150;23071;-74
2021/01/19 07:46:34;;;;;;;39.23;20.00;;;;;;;-0.68;86.83;98662.95;250224;1150;22983;-75
2021/01/19 07:51:44;;;;;;;35.10;17.03;;;;;;;-0.65;86.87;98654.61;249973;1148;22976;-76
2021/01/19 07:56:46;;;;;;;36.98;19.35;;;;;;;-0.57;86.19;98658.80;250011;1148;22942;-74
2021/01/19 08:01:55;;;;;;;44.17;19.53;;;;;;;-0.57;86.64;98651.70;250026;1148;23027;-74
2021/01/19 08:07:10;;;;;;;38.53;18.80;;;;;;;-0.53;85.83;98654.70;250463;1148;22922;-73
2021/01/19 08:12:16;;;;;;;47.77;23.93;;;;;;;-0.44;86.56;98648.11;250137;1148;24086;-76
2021/01/19 08:17:36;;;;;;;44.40;20.80;;;;;;;-0.32;86.49;98656.09;250197;1148;23021;-75
2021/01/19 08:22:38;;;;;;;38.60;18.60;;;;;;;-0.26;85.92;98654.41;250173;1148;22925;-73
2021/01/19 08:27:41;;;;;;;41.17;20.63;;;;;;;-0.14;85.97;98654.46;250292;1148;23103;-72
2021/01/19 08:32:46;;;;;;;41.13;19.00;;;;;;;0.02;85.81;98669.66;250319;1148;23132;-74
2021/01/19 08:38:00;;;;;;;41.50;20.50;;;;;;;0.10;86.31;98661.45;250161;1148;23877;-75
2021/01/19 08:43:07;;;;;;;41.57;18.97;;;;;;;0.20;86.10;98658.30;250005;1148;23101;-73
2021/01/19 08:48:10;;;;;;;38.93;18.80;;;;;;;0.38;86.00;98672.43;250218;1148;26383;-74
2021/01/19 08:53:14;;;;;;;38.67;18.50;;;;;;;0.46;85.77;98680.84;250903;1148;22887;-73
2021/01/19 08:58:20;;;;;;;38.47;19.20;;;;;;;0.55;85.56;98681.33;250726;1148;23123;-74
2021/01/19 09:03:23;;;;;;;45.63;21.83;;;;;;;0.65;85.51;98678.14;250230;1148;22959;-74
2021/01/19 09:08:43;;;;;;;47.60;21.90;;;;;;;0.73;84.22;98676.99;250303;1147;22964;-74
2021/01/19 09:13:47;;;;;;;45.90;22.07;;;;;;;0.74;83.92;98679.44;250324;1148;23874;-74
2021/01/19 09:18:57;;;;;;;36.10;18.85;;;;;;;0.77;84.00;98684.25;249973;1148;22967;-75
2021/01/19 09:24:00;;;;;;;37.58;20.02;;;;;;;0.85;83.43;98673.38;250101;1148;22976;-73
2021/01/19 09:29:05;;;;;;;41.20;21.57;;;;;;;0.93;83.89;98676.70;250116;1148;22908;-75
2021/01/19 09:34:11;;;;;;;51.97;24.30;;;;;;;1.00;83.51;98667.64;250094;1146;22968;-76
2021/01/19 09:39:14;;;;;;;42.20;21.83;;;;;;;1.18;83.41;98650.90;250484;1148;22889;-75
2021/01/19 09:44:18;;;;;;;42.27;22.03;;;;;;;1.35;83.34;98637.80;251468;1148;22967;-75
2021/01/19 09:49:22;;;;;;;52.73;25.13;;;;;;;1.52;82.25;98629.97;250200;1147;22942;-75
2021/01/19 09:54:24;;;;;;;43.85;20.60;;;;;;;1.72;82.60;98615.58;250227;1147;22966;-74
2021/01/19 09:59:29;;;;;;;39.23;20.53;;;;;;;1.86;81.95;98602.91;250112;1148;22964;-75
2021/01/19 10:04:31;;;;;;;46.03;23.40;;;;;;;2.02;81.46;98588.16;249935;1148;23019;-75
2021/01/19 10:09:35;;;;;;;42.17;21.30;;;;;;;2.15;81.58;98582.56;250340;1147;23131;-73
2021/01/19 10:14:41;;;;;;;39.00;21.80;;;;;;;2.16;81.22;98586.02;250169;1147;22951;-76
2021/01/19 10:20:14;;;;;;;36.25;18.90;;;;;;;2.16;80.18;98583.37;250681;1146;23000;-79
2021/01/19 10:25:28;;;;;;;40.03;21.27;;;;;;;2.22;80.23;98571.84;250492;1148;23480;-79
2021/01/19 10:30:33;;;;;;;38.60;18.53;;;;;;;2.22;80.49;98559.45;250806;1148;22942;-80
2021/01/19 10:35:37;;;;;;;36.83;18.90;;;;;;;2.30;80.31;98562.73;251286;1148;23047;-80
2021/01/19 10:40:45;;;;;;;39.07;20.53;;;;;;;2.38;79.82;98549.91;252083;1147;22964;-79
2021/01/19 10:45:49;;;;;;;35.60;18.47;;;;;;;2.49;80.10;98550.06;251754;1147;22956;-79
2021/01/19 10:50:51;;;;;;;35.93;19.27;;;;;;;2.56;80.45;98540.95;251781;1148;22941;-80
2021/01/19 10:55:53;;;;;;;37.27;17.63;;;;;;;2.53;79.43;98536.14;251863;1148;22973;-78
2021/01/19 11:00:55;;;;;;;37.30;19.87;;;;;;;2.55;79.27;98531.41;250633;1147;22945;-79
2021/01/19 11:05:57;;;;;;;32.70;18.25;;;;;;;2.67;79.60;98531.33;250501;1148;22946;-77
2021/01/19 11:10:59;;;;;;;35.65;18.90;;;;;;;2.74;79.98;98539.07;250800;1148;23340;-80
2021/01/19 11:16:05;;;;;;;35.03;19.40;;;;;;;2.78;79.09;98523.52;251702;1148;22919;-78
2021/01/19 11:21:07;;;;;;;32.50;17.03;;;;;;;2.70;78.85;98512.32;251165;1147;22939;-79
2021/01/19 11:26:09;;;;;;;31.05;17.15;;;;;;;2.66;78.37;98507.73;250895;1147;22989;-80
2021/01/19 11:31:11;;;;;;;31.67;16.17;;;;;;;2.59;78.70;98504.47;252339;1146;22991;-80
2021/01/19 11:36:22;;;;;;;28.67;16.20;;;;;;;2.53;78.96;98490.37;252416;1147;23001;-79
2021/01/19 11:41:26;;;;;;;28.25;16.35;;;;;;;2.54;79.03;98484.84;252734;1148;22905;-80
2021/01/19 11:46:29;;;;;;;28.23;16.07;;;;;;;2.71;79.25;98476.08;252970;1147;22976;-79
2021/01/19 11:51:34;;;;;;;34.73;18.90;;;;;;;2.86;79.47;98457.76;251436;1147;23055;-82
2021/01/19 11:56:39;;;;;;;28.37;15.70;;;;;;;2.82;78.79;98446.06;250322;1148;22970;-78
2021/01/19 12:01:42;;;;;;;29.50;16.40;;;;;;;2.88;78.74;98449.57;250316;1148;23106;-76
2021/01/19 12:06:44;;;;;;;34.43;17.87;;;;;;;2.98;78.73;98431.19;250486;1148;23001;-75
2021/01/19 12:11:54;;;;;;;30.87;17.13;;;;;;;3.07;78.41;98428.91;250337;1148;22970;-77
2021/01/19 12:16:57;;;;;;;;;;;;;;;3.06;78.08;98416.71;252477;1148;22962;-77
2021/01/19 12:21:59;;;;;;;23.10;14.23;;;;;;;3.12;78.26;98422.86;250342;1148;22721;-77
2021/01/19 12:27:03;;;;;;;26.47;14.77;;;;;;;3.18;78.57;98414.73;250112;1148;22958;-76
2021/01/19 12:32:10;;;;;;;25.20;14.85;;;;;;;3.15;77.77;98394.06;249850;1148;23063;-76
2021/01/19 12:37:12;;;;;;;23.53;13.37;;;;;;;3.07;78.59;98382.05;250078;1147;22961;-76
2021/01/19 12:42:14;;;;;;;23.93;13.03;;;;;;;2.98;77.98;98388.03;250325;1148;23108;-78
2021/01/19 12:47:16;;;;;;;20.70;10.67;;;;;;;2.90;77.70;98387.44;251300;1147;22900;-77
2021/01/19 12:52:18;;;;;;;23.00;11.47;;;;;;;2.81;78.36;98383.64;250405;1148;22981;-76
2021/01/19 12:57:20;;;;;;;21.90;11.67;;;;;;;2.91;78.93;98382.95;250198;1148;23359;-77
2021/01/19 13:02:23;;;;;;;25.73;13.57;;;;;;;2.93;78.65;98383.50;250070;1148;23021;-75
2021/01/19 13:07:26;;;;;;;21.80;13.47;;;;;;;2.92;78.20;98384.53;250252;1147;23033;-73
2021/01/19 13:12:28;;;;;;;24.05;14.05;;;;;;;2.93;78.87;98369.48;250192;1148;22957;-76
2021/01/19 13:17:32;;;;;;;24.75;14.20;;;;;;;2.84;78.33;98369.91;250079;1148;23030;-76
2021/01/19 13:22:35;;;;;;;27.00;14.37;;;;;;;2.77;78.70;98371.13;250503;1147;22905;-75
2021/01/19 13:27:38;;;;;;;27.95;13.35;;;;;;;2.60;78.24;98366.70;250370;1148;23083;-74
2021/01/19 13:32:40;;;;;;;29.10;15.55;;;;;;;2.47;78.63;98352.01;250007;1148;22978;-75
2021/01/19 13:37:43;;;;;;;31.93;17.53;;;;;;;2.34;78.95;98339.16;249994;1148;22899;-76
2021/01/19 13:42:46;;;;;;;29.93;15.93;;;;;;;2.23;79.25;98333.73;250148;1148;22958;-76
2021/01/19 13:47:49;;;;;;;43.07;21.03;;;;;;;2.14;79.82;98324.64;250021;1148;23408;-76
2021/01/19 13:52:53;;;;;;;37.93;19.93;;;;;;;2.25;80.19;98322.13;250002;1147;25957;-76
2021/01/19 13:57:55;;;;;;;37.30;19.95;;;;;;;2.35;80.75;98330.17;250021;1148;22933;-76
2021/01/19 14:02:57;;;;;;;28.60;16.10;;;;;;;2.36;80.21;98318.55;249746;1148;22977;-77
2021/01/19 14:08:00;;;;;;;33.97;18.33;;;;;;;2.12;79.53;98302.92;250143;1148;23097;-77
2021/01/19 14:13:02;;;;;;;33.70;18.20;;;;;;;1.83;79.80;98299.63;250259;1147;22995;-75
2021/01/19 14:18:04;;;;;;;32.37;17.07;;;;;;;1.64;79.65;98299.11;250403;1147;22994;-77
2021/01/19 14:23:07;;;;;;;66.77;28.67;;;;;;;1.47;80.44;98297.27;250565;1148;22954;-78
2021/01/19 14:28:10;;;;;;;28.50;13.60;;;;;;;1.36;80.71;98308.70;249843;1148;22925;-76
2021/01/19 14:33:12;;;;;;;20.30;11.57;;;;;;;1.23;80.77;98296.59;250038;1148;22939;-73
2021/01/19 14:38:14;;;;;;;19.30;10.75;;;;;;;1.13;80.45;98296.44;250028;1148;22930;-75
2021/01/19 14:43:16;;;;;;;17.13;10.43;;;;;;;1.06;81.19;98283.39;251065;1148;23122;-78
2021/01/19 14:48:18;;;;;;;21.53;11.03;;;;;;;1.00;81.83;98290.42;249940;1148;24228;-78
2021/01/19 14:53:20;;;;;;;18.77;10.40;;;;;;;0.93;81.53;98281.86;250122;1147;22930;-80
2021/01/19 14:58:23;;;;;;;26.35;13.15;;;;;;;0.89;82.19;98264.13;250282;1148;22950;-77
2021/01/19 15:03:26;;;;;;;24.75;11.35;;;;;;;0.84;82.42;98256.93;250692;1147;26368;-78
2021/01/19 15:08:31;;;;;;;24.33;11.97;;;;;;;0.82;82.06;98262.41;251562;1147;22942;-78
2021/01/19 15:13:33;;;;;;;22.33;11.60;;;;;;;0.81;82.24;98254.74;251317;1148;23067;-77
2021/01/19 15:18:36;;;;;;;28.37;14.60;;;;;;;0.79;82.41;98252.34;250888;1148;22926;-78
2021/01/19 15:23:38;;;;;;;27.57;13.67;;;;;;;0.77;81.80;98225.43;250317;1147;23039;-78
2021/01/19 15:28:40;;;;;;;22.40;11.40;;;;;;;0.76;82.82;98215.13;250356;1147;22939;-77
2021/01/19 15:33:42;;;;;;;25.20;11.20;;;;;;;0.70;82.55;98216.05;250079;1148;22918;-78
2021/01/19 15:38:47;;;;;;;25.40;12.90;;;;;;;0.67;82.68;98183.88;250351;1148;23505;-77
2021/01/19 15:43:50;;;;;;;32.87;15.10;;;;;;;0.66;82.06;98181.48;250442;1147;26146;-77
2021/01/19 15:48:53;;;;;;;21.53;10.77;;;;;;;0.63;81.86;98172.20;250057;1148;22949;-78
2021/01/19 15:53:55;;;;;;;21.67;9.80;;;;;;;0.64;82.31;98162.45;250242;1148;22964;-77
2021/01/19 15:58:59;;;;;;;21.17;8.63;;;;;;;0.64;82.00;98152.72;250383;1148;22935;-78
2021/01/19 16:04:02;;;;;;;18.20;8.20;;;;;;;0.66;81.47;98129.55;250060;1150;22941;-78
2021/01/19 16:09:07;;;;;;;16.90;7.60;;;;;;;0.68;81.23;98121.39;250041;1148;24387;-76
2021/01/19 16:14:09;;;;;;;17.00;7.50;;;;;;;0.69;81.52;98130.91;250182;1150;22931;-77
2021/01/19 16:19:11;;;;;;;20.33;9.50;;;;;;;0.73;80.96;98128.57;250043;1151;22942;-77
2021/01/19 16:24:13;;;;;;;15.50;7.70;;;;;;;0.77;80.80;98125.23;249977;1151;22923;-76
2021/01/19 16:29:15;;;;;;;14.20;7.30;;;;;;;0.74;80.32;98112.54;250026;1156;23070;-79
2021/01/19 16:34:17;;;;;;;14.30;6.90;;;;;;;0.73;80.93;98112.75;250016;1151;23110;-77
2021/01/19 16:39:20;;;;;;;17.37;8.77;;;;;;;0.74;80.01;98115.17;249863;1149;22937;-77
2021/01/19 16:44:22;;;;;;;15.30;7.03;;;;;;;0.72;80.85;98108.55;249829;1151;23050;-76
2021/01/19 16:49:24;;;;;;;14.97;7.30;;;;;;;0.71;80.09;98097.17;249798;1151;22943;-78
2021/01/19 16:54:26;;;;;;;18.20;8.60;;;;;;;0.72;80.81;98093.52;249726;1148;22999;-77
2021/01/19 16:59:28;;;;;;;17.25;6.30;;;;;;;0.74;80.07;98086.17;249885;1148;22946;-77
2021/01/19 17:04:31;;;;;;;15.23;6.73;;;;;;;0.75;79.35;98069.30;249787;1148;22974;-78
2021/01/19 17:09:33;;;;;;;20.77;8.80;;;;;;;0.79;79.95;98075.69;250029;1148;22915;-78
2021/01/19 17:14:35;;;;;;;15.15;5.40;;;;;;;0.79;79.46;98075.69;249919;1151;23045;-77
2021/01/19 17:19:38;;;;;;;15.00;7.20;;;;;;;0.81;79.98;98076.26;249867;1151;22948;-77
2021/01/19 17:24:43;;;;;;;18.85;7.85;;;;;;;0.82;79.02;98077.83;249638;1148;23071;-78
2021/01/19 17:29:45;;;;;;;17.10;7.37;;;;;;;0.83;79.78;98071.53;249764;1150;22991;-77
2021/01/19 17:34:48;;;;;;;17.07;8.07;;;;;;;0.84;79.49;98067.07;250082;1148;22960;-76
2021/01/19 17:39:50;;;;;;;14.10;7.75;;;;;;;0.84;79.15;98061.80;249847;1148;26382;-78
2021/01/19 17:44:53;;;;;;;42.37;20.30;;;;;;;0.90;80.71;98060.81;250102;1148;23047;-78
2021/01/19 17:49:55;;;;;;;17.10;7.63;;;;;;;0.97;79.79;98073.84;249821;1149;22949;-76
2021/01/19 17:54:57;;;;;;;16.97;8.43;;;;;;;0.94;79.13;98077.75;249752;1148;22967;-78
2021/01/19 17:59:59;;;;;;;16.70;8.00;;;;;;;0.96;78.60;98077.51;249585;1151;23116;-75
2021/01/19 18:05:01;;;;;;;13.17;6.23;;;;;;;0.98;79.56;98076.23;249705;1148;22979;-76
2021/01/19 18:10:03;;;;;;;10.90;5.60;;;;;;;1.01;79.77;98096.84;250054;1148;23010;-76
2021/01/19 18:15:07;;;;;;;10.37;4.00;;;;;;;1.02;86.43;98073.89;249936;1150;22949;-76
2021/01/19 18:20:12;;;;;;;8.65;4.10;;;;;;;0.87;85.58;98081.58;249911;1149;22949;-78
2021/01/19 18:25:15;;;;;;;6.50;3.70;;;;;;;0.51;90.35;98073.95;250238;1148;22918;-77
2021/01/19 18:30:19;;;;;;;8.30;3.60;;;;;;;0.25;90.97;98064.83;250055;1148;25915;-81
2021/01/19 18:35:21;;;;;;;10.37;5.53;;;;;;;0.03;93.26;98052.36;249696;1148;25980;-77
2021/01/19 18:40:23;;;;;;;9.10;4.50;;;;;;;-0.06;95.60;98056.41;249718;1150;22923;-78
2021/01/19 18:45:25;;;;;;;10.40;5.25;;;;;;;-0.10;95.14;98045.56;249773;1148;22941;-77
2021/01/19 18:50:28;;;;;;;10.47;5.33;;;;;;;-0.15;95.95;98037.56;249697;1151;23369;-76
2021/01/19 18:55:30;;;;;;;11.00;5.23;;;;;;;-0.14;96.09;98040.98;250432;1148;23017;-76
2021/01/19 19:00:34;;;;;;;10.47;4.80;;;;;;;-0.13;95.67;98037.33;249700;1154;22942;-78
2021/01/19 19:05:36;;;;;;;11.07;6.23;;;;;;;-0.09;95.87;98025.29;249733;1148;22974;-78
2021/01/19 19:10:38;;;;;;;11.67;5.60;;;;;;;-0.09;95.47;98022.66;249749;1151;22984;-79
2021/01/19 19:15:40;;;;;;;13.17;6.33;;;;;;;-0.07;94.91;98021.39;249470;1149;26408;-77
2021/01/19 19:20:42;;;;;;;10.27;5.43;;;;;;;-0.07;94.59;98016.12;249559;1148;22962;-78
2021/01/19 19:25:44;;;;;;;12.07;5.43;;;;;;;-0.09;94.09;98015.55;249438;1148;23419;-78
2021/01/19 19:30:48;;;;;;;12.63;5.50;;;;;;;-0.09;94.41;98014.76;249616;1155;22939;-77
2021/01/19 19:35:51;;;;;;;13.35;7.30;;;;;;;-0.12;94.23;98012.61;249599;1148;22981;-75
2021/01/19 19:40:53;;;;;;;12.95;6.60;;;;;;;-0.13;94.31;98016.27;249609;1155;22940;-78
2021/01/19 19:45:56;;;;;;;17.87;7.60;;;;;;;-0.13;94.60;98026.80;249507;1148;22962;-76
2021/01/19 19:50:58;;;;;;;15.60;7.23;;;;;;;-0.11;93.82;98019.45;249759;1148;23076;-78
2021/01/19 19:56:00;;;;;;;12.53;6.73;;;;;;;-0.07;94.29;98013.48;249782;1148;22902;-77
2021/01/19 20:01:06;;;;;;;18.77;8.23;;;;;;;-0.01;94.19;98030.95;249639;1148;22950;-78
2021/01/19 20:06:09;;;;;;;14.00;6.80;;;;;;;0.05;93.54;98017.89;249674;1148;25870;-78
2021/01/19 20:11:13;;;;;;;14.15;6.80;;;;;;;0.09;93.40;98025.06;249655;1148;26031;-77
2021/01/19 20:16:16;;;;;;;13.55;6.30;;;;;;;0.11;93.78;98020.37;249773;1148;23019;-78
2021/01/19 20:21:18;;;;;;;12.45;6.55;;;;;;;0.14;92.88;98022.52;249843;1155;22963;-77
2021/01/19 20:26:20;;;;;;;14.20;6.43;;;;;;;0.16;92.58;98020.44;249699;1148;22939;-78
2021/01/19 20:31:23;;;;;;;12.30;5.87;;;;;;;0.19;92.82;98018.38;249442;1148;22973;-80
2021/01/19 20:36:27;;;;;;;14.20;6.55;;;;;;;0.21;92.17;98018.92;249586;1148;22942;-77
2021/01/19 20:41:29;;;;;;;16.00;6.70;;;;;;;0.23;91.98;98014.23;249750;1148;23195;-78
2021/01/19 20:46:32;;;;;;;8.97;4.97;;;;;;;0.26;92.27;98011.11;249638;1148;23128;-78
2021/01/19 20:51:35;;;;;;;12.80;5.40;;;;;;;0.31;92.36;98008.56;249474;1151;22962;-77
2021/01/19 20:56:38;;;;;;;10.97;5.47;;;;;;;0.35;91.54;98020.22;249645;1148;23007;-77
2021/01/19 21:01:40;;;;;;;13.00;6.13;;;;;;;0.40;91.96;98014.22;249792;1148;23148;-81
2021/01/19 21:06:42;;;;;;;14.35;6.05;;;;;;;0.44;91.04;98020.61;249794;1153;22971;-78
2021/01/19 21:11:45;;;;;;;15.27;6.43;;;;;;;0.49;91.44;98015.39;249753;1156;22957;-76
2021/01/19 21:16:47;;;;;;;11.27;5.73;;;;;;;0.54;91.42;98026.02;249748;1148;22975;-78
2021/01/19 21:21:53;;;;;;;12.10;5.30;;;;;;;0.55;91.17;98019.72;249973;1150;22972;-79
2021/01/19 21:26:56;;;;;;;10.20;5.40;;;;;;;0.59;90.37;98018.20;249968;1148;23363;-78
2021/01/19 21:31:58;;;;;;;11.40;6.00;;;;;;;0.59;89.91;98025.29;249700;1155;22945;-78
2021/01/19 21:37:01;;;;;;;13.30;6.17;;;;;;;0.61;90.49;98018.74;249719;1148;27286;-77
2021/01/19 21:42:03;;;;;;;11.43;6.30;;;;;;;0.61;89.12;98026.65;249590;1150;22970;-75
2021/01/19 21:47:05;;;;;;;12.50;7.40;;;;;;;0.61;89.37;98015.32;249584;1148;23007;-77
2021/01/19 21:52:08;;;;;;;12.57;6.57;;;;;;;0.61;89.51;98015.32;249653;1148;22931;-77
2021/01/19 21:57:10;;;;;;;15.47;7.07;;;;;;;0.60;89.56;98013.72;249673;1155;22975;-77
2021/01/19 22:02:12;;;;;;;14.95;7.90;;;;;;;0.61;88.76;98020.59;249676;1151;22950;-77
2021/01/19 22:07:15;;;;;;;14.07;6.93;;;;;;;0.60;88.67;98024.26;249677;1151;22991;-78
2021/01/19 22:12:16;;;;;;;15.00;7.10;;;;;;;0.57;89.33;98024.75;249698;1150;22970;-77
2021/01/19 22:17:19;;;;;;;13.45;6.80;;;;;;;0.55;89.08;98030.27;249598;1148;23047;-76
2021/01/19 22:22:21;;;;;;;13.10;6.05;;;;;;;0.53;88.74;98029.69;249859;1148;22934;-77
2021/01/19 22:27:23;;;;;;;13.97;7.40;;;;;;;0.54;88.48;98031.30;249714;1149;22963;-77
2021/01/19 22:32:27;;;;;;;16.57;8.23;;;;;;;0.55;88.57;98021.56;249643;1148;22939;-77
2021/01/19 22:37:30;;;;;;;13.17;7.17;;;;;;;0.57;88.33;98019.48;249632;1156;23372;-77
2021/01/19 22:42:32;;;;;;;12.40;6.87;;;;;;;0.57;88.64;98012.36;249533;1151;22941;-77
2021/01/19 22:47:34;;;;;;;14.13;7.20;;;;;;;0.57;88.00;98016.84;249837;1148;24722;-76
2021/01/19 22:52:36;;;;;;;14.20;7.30;;;;;;;0.59;88.28;98017.38;249686;1151;23116;-78
2021/01/19 22:57:38;;;;;;;15.40;8.20;;;;;;;0.63;87.56;98021.95;249523;1155;22950;-78
2021/01/19 23:02:41;;;;;;;14.70;7.90;;;;;;;0.63;88.67;98019.31;249716;1147;22954;-78
2021/01/19 23:07:43;;;;;;;16.20;7.35;;;;;;;0.66;88.62;98012.77;249613;1148;27266;-82
2021/01/19 23:12:46;;;;;;;15.60;7.17;;;;;;;0.65;88.45;98024.34;249758;1148;26373;-77
2021/01/19 23:17:50;;;;;;;17.90;8.80;;;;;;;0.62;87.86;98017.71;249697;1148;22945;-78